sensor_id;sensor_type;location;lat;lon;timestamp;temperature;humidity
11446;DHT22;5779;64.178;15.432;2022-12-29T00:00:13;-17.60;99.90
11446;DHT22;5779;64.178;15.432;2022-12-29T00:03:00;-17.50;99.90
11446;DHT22;5779;64.178;15.432;2022-12-29T00:05:54;-17.50;99.90
11446;DHT22;5779;64.178;15.432;2022-12-29T00:08:44;-17.80;99.90
11446;DHT22;5779;64.178;15.432;2022-12-29T00:11:31;-17.80;99.90
11446;DHT22;5779;64.178;15.432;2022-12-29T00:14:19;-17.80;99.90
11446;DHT22;5779;64.178;15.432;2022-12-29T00:17:24;-17.70;99.90
11446;DHT22;5779;64.178;15.432;2022-12-29T00:20:11;-17.50;99.90
11446;DHT22;5779;64.178;15.432;2022-12-29T00:23:15;-17.40;99.90
11446;DHT22;5779;64.178;15.432;2022-12-29T00:26:19;-17.30;99.90
11446;DHT22;5779;64.178;15.432;2022-12-29T00:29:25;-17.30;99.90
11446;DHT22;5779;64.178;15.432;2022-12-29T00:32:29;-17.70;99.90
11446;DHT22;5779;64.178;15.432;2022-12-29T00:35:38;-17.80;99.90
11446;DHT22;5779;64.178;15.432;2022-12-29T00:38:26;-17.80;99.90
11446;DHT22;5779;64.178;15.432;2022-12-29T00:41:31;-17.80;99.90
11446;DHT22;5779;64.178;15.432;2022-12-29T00:44:36;-17.70;99.90
11446;DHT22;5779;64.178;15.432;2022-12-29T00:47:23;-17.60;99.90
11446;DHT22;5779;64.178;15.432;2022-12-29T00:50:10;-17.50;99.90
11446;DHT22;5779;64.178;15.432;2022-12-29T00:52:56;-17.70;99.90
11446;DHT22;5779;64.178;15.432;2022-12-29T00:55:42;-17.70;99.90
11446;DHT22;5779;64.178;15.432;2022-12-29T00:58:31;-17.70;99.90
11446;DHT22;5779;64.178;15.432;2022-12-29T01:01:19;-17.60;99.90
11446;DHT22;5779;64.178;15.432;2022-12-29T01:04:06;-17.60;99.90
11446;DHT22;5779;64.178;15.432;2022-12-29T01:06:53;-18.00;99.90
11446;DHT22;5779;64.178;15.432;2022-12-29T01:09:40;-18.40;99.90
11446;DHT22;5779;64.178;15.432;2022-12-29T01:12:44;-18.20;99.90
11446;DHT22;5779;64.178;15.432;2022-12-29T01:15:32;-18.20;99.90
11446;DHT22;5779;64.178;15.432;2022-12-29T01:18:21;-18.00;99.90
11446;DHT22;5779;64.178;15.432;2022-12-29T01:21:09;-18.00;99.90
11446;DHT22;5779;64.178;15.432;2022-12-29T01:23:58;-18.10;99.90
11446;DHT22;5779;64.178;15.432;2022-12-29T01:26:45;-18.00;99.90
11446;DHT22;5779;64.178;15.432;2022-12-29T01:29:32;-17.90;99.90
11446;DHT22;5779;64.178;15.432;2022-12-29T01:32:19;-17.60;99.90
11446;DHT22;5779;64.178;15.432;2022-12-29T01:35:08;-17.50;99.90
11446;DHT22;5779;64.178;15.432;2022-12-29T01:37:55;-17.50;99.90
11446;DHT22;5779;64.178;15.432;2022-12-29T01:40:46;-17.40;99.90
11446;DHT22;5779;64.178;15.432;2022-12-29T01:43:40;-17.40;99.90
11446;DHT22;5779;64.178;15.432;2022-12-29T01:46:29;-17.50;99.90
11446;DHT22;5779;64.178;15.432;2022-12-29T01:49:19;-17.40;99.90
11446;DHT22;5779;64.178;15.432;2022-12-29T01:52:08;-17.40;99.90
11446;DHT22;5779;64.178;15.432;2022-12-29T01:54:55;-17.30;99.90
11446;DHT22;5779;64.178;15.432;2022-12-29T01:57:47;-17.20;99.90
11446;DHT22;5779;64.178;15.432;2022-12-29T02:00:36;-17.30;99.90
11446;DHT22;5779;64.178;15.432;2022-12-29T02:03:25;-17.30;99.90
11446;DHT22;5779;64.178;15.432;2022-12-29T02:06:18;-17.30;99.90
11446;DHT22;5779;64.178;15.432;2022-12-29T02:09:08;-17.30;99.90
11446;DHT22;5779;64.178;15.432;2022-12-29T02:11:55;-17.40;99.90
11446;DHT22;5779;64.178;15.432;2022-12-29T02:14:43;-17.40;99.90
11446;DHT22;5779;64.178;15.432;2022-12-29T02:17:43;-17.40;99.90
11446;DHT22;5779;64.178;15.432;2022-12-29T02:20:50;-17.40;99.90
11446;DHT22;5779;64.178;15.432;2022-12-29T02:27:36;-17.70;99.90
11446;DHT22;5779;64.178;15.432;2022-12-29T02:30:42;-17.60;99.90
11446;DHT22;5779;64.178;15.432;2022-12-29T02:33:41;-17.60;99.90
11446;DHT22;5779;64.178;15.432;2022-12-29T02:36:37;-17.50;99.90
11446;DHT22;5779;64.178;15.432;2022-12-29T02:39:34;-17.50;99.90
11446;DHT22;5779;64.178;15.432;2022-12-29T02:42:31;-17.40;99.90
11446;DHT22;5779;64.178;15.432;2022-12-29T02:45:25;-17.30;99.90
11446;DHT22;5779;64.178;15.432;2022-12-29T02:48:19;-17.30;99.90
11446;DHT22;5779;64.178;15.432;2022-12-29T02:51:12;-17.30;99.90
11446;DHT22;5779;64.178;15.432;2022-12-29T02:54:02;-17.30;99.90
11446;DHT22;5779;64.178;15.432;2022-12-29T02:57:13;-17.20;99.90
11446;DHT22;5779;64.178;15.432;2022-12-29T03:00:04;-17.20;99.90
11446;DHT22;5779;64.178;15.432;2022-12-29T03:03:10;-17.20;99.90
11446;DHT22;5779;64.178;15.432;2022-12-29T03:06:14;-17.10;99.90
11446;DHT22;5779;64.178;15.432;2022-12-29T03:09:18;-17.00;99.90
11446;DHT22;5779;64.178;15.432;2022-12-29T03:12:13;-17.10;99.90
11446;DHT22;5779;64.178;15.432;2022-12-29T03:15:08;-17.10;99.90
11446;DHT22;5779;64.178;15.432;2022-12-29T03:18:18;-17.10;99.90
11446;DHT22;5779;64.178;15.432;2022-12-29T03:21:12;-17.10;99.90
11446;DHT22;5779;64.178;15.432;2022-12-29T03:24:01;-17.00;99.90
11446;DHT22;5779;64.178;15.432;2022-12-29T03:26:49;-16.90;99.90
11446;DHT22;5779;64.178;15.432;2022-12-29T03:29:41;-17.00;99.90
11446;DHT22;5779;64.178;15.432;2022-12-29T03:32:33;-17.20;99.90
11446;DHT22;5779;64.178;15.432;2022-12-29T03:35:24;-17.10;99.90
11446;DHT22;5779;64.178;15.432;2022-12-29T03:38:16;-17.10;99.90
11446;DHT22;5779;64.178;15.432;2022-12-29T03:41:08;-16.90;99.90
11446;DHT22;5779;64.178;15.432;2022-12-29T03:43:56;-16.80;99.90
11446;DHT22;5779;64.178;15.432;2022-12-29T03:46:43;-16.80;99.90
11446;DHT22;5779;64.178;15.432;2022-12-29T03:49:30;-16.70;99.90
11446;DHT22;5779;64.178;15.432;2022-12-29T03:52:17;-16.70;99.90
11446;DHT22;5779;64.178;15.432;2022-12-29T03:55:07;-16.60;99.90
11446;DHT22;5779;64.178;15.432;2022-12-29T03:57:54;-16.60;99.90
11446;DHT22;5779;64.178;15.432;2022-12-29T04:00:41;-16.50;99.90
11446;DHT22;5779;64.178;15.432;2022-12-29T04:03:27;-16.40;99.90
11446;DHT22;5779;64.178;15.432;2022-12-29T04:06:14;-16.30;99.90
11446;DHT22;5779;64.178;15.432;2022-12-29T04:09:01;-16.30;99.90
11446;DHT22;5779;64.178;15.432;2022-12-29T04:11:49;-16.30;99.90
11446;DHT22;5779;64.178;15.432;2022-12-29T04:14:36;-16.30;99.90
11446;DHT22;5779;64.178;15.432;2022-12-29T04:17:23;-16.20;99.90
11446;DHT22;5779;64.178;15.432;2022-12-29T04:20:10;-16.20;99.90
11446;DHT22;5779;64.178;15.432;2022-12-29T04:23:15;-16.10;99.90
11446;DHT22;5779;64.178;15.432;2022-12-29T04:26:02;-16.10;99.90
11446;DHT22;5779;64.178;15.432;2022-12-29T04:28:50;-16.10;99.90
11446;DHT22;5779;64.178;15.432;2022-12-29T04:31:37;-16.10;99.90
11446;DHT22;5779;64.178;15.432;2022-12-29T04:34:24;-16.00;99.90
11446;DHT22;5779;64.178;15.432;2022-12-29T04:37:11;-15.90;99.90
11446;DHT22;5779;64.178;15.432;2022-12-29T04:39:58;-16.00;99.90
11446;DHT22;5779;64.178;15.432;2022-12-29T04:42:45;-15.90;99.90
11446;DHT22;5779;64.178;15.432;2022-12-29T04:45:33;-15.70;99.90
11446;DHT22;5779;64.178;15.432;2022-12-29T04:48:20;-15.80;99.90
11446;DHT22;5779;64.178;15.432;2022-12-29T04:51:06;-16.00;99.90
11446;DHT22;5779;64.178;15.432;2022-12-29T04:53:53;-16.00;99.90
11446;DHT22;5779;64.178;15.432;2022-12-29T04:56:40;-15.90;99.90
11446;DHT22;5779;64.178;15.432;2022-12-29T04:59:27;-16.00;99.90
11446;DHT22;5779;64.178;15.432;2022-12-29T05:02:15;-16.00;99.90
11446;DHT22;5779;64.178;15.432;2022-12-29T05:05:02;-15.90;99.90
11446;DHT22;5779;64.178;15.432;2022-12-29T05:07:49;-15.80;99.90
11446;DHT22;5779;64.178;15.432;2022-12-29T05:10:36;-15.80;99.90
11446;DHT22;5779;64.178;15.432;2022-12-29T05:13:23;-15.70;99.90
11446;DHT22;5779;64.178;15.432;2022-12-29T05:16:10;-15.70;99.90
11446;DHT22;5779;64.178;15.432;2022-12-29T05:18:58;-15.70;99.90
11446;DHT22;5779;64.178;15.432;2022-12-29T05:21:45;-15.70;99.90
11446;DHT22;5779;64.178;15.432;2022-12-29T05:24:32;-15.60;99.90
11446;DHT22;5779;64.178;15.432;2022-12-29T05:27:18;-15.60;99.90
11446;DHT22;5779;64.178;15.432;2022-12-29T05:30:06;-15.40;99.90
11446;DHT22;5779;64.178;15.432;2022-12-29T05:32:53;-15.10;99.90
11446;DHT22;5779;64.178;15.432;2022-12-29T05:35:42;-15.10;99.90
11446;DHT22;5779;64.178;15.432;2022-12-29T05:38:29;-15.00;99.90
11446;DHT22;5779;64.178;15.432;2022-12-29T05:41:16;-15.20;99.90
11446;DHT22;5779;64.178;15.432;2022-12-29T05:44:03;-15.40;99.90
11446;DHT22;5779;64.178;15.432;2022-12-29T05:46:50;-15.40;99.90
11446;DHT22;5779;64.178;15.432;2022-12-29T05:49:37;-15.30;99.90
11446;DHT22;5779;64.178;15.432;2022-12-29T05:52:25;-15.20;99.90
11446;DHT22;5779;64.178;15.432;2022-12-29T05:55:12;-15.10;99.90
11446;DHT22;5779;64.178;15.432;2022-12-29T05:57:59;-15.30;99.90
11446;DHT22;5779;64.178;15.432;2022-12-29T06:00:46;-15.40;99.90
11446;DHT22;5779;64.178;15.432;2022-12-29T06:03:32;-15.40;99.90
11446;DHT22;5779;64.178;15.432;2022-12-29T06:06:19;-15.30;99.90
11446;DHT22;5779;64.178;15.432;2022-12-29T06:09:10;-15.30;99.90
11446;DHT22;5779;64.178;15.432;2022-12-29T06:11:57;-15.40;99.90
11446;DHT22;5779;64.178;15.432;2022-12-29T06:14:44;-15.30;99.90
11446;DHT22;5779;64.178;15.432;2022-12-29T06:17:31;-15.30;99.90
11446;DHT22;5779;64.178;15.432;2022-12-29T06:20:17;-15.20;99.90
11446;DHT22;5779;64.178;15.432;2022-12-29T06:23:04;-15.30;99.90
11446;DHT22;5779;64.178;15.432;2022-12-29T06:25:53;-15.40;99.90
11446;DHT22;5779;64.178;15.432;2022-12-29T06:28:39;-15.70;99.90
11446;DHT22;5779;64.178;15.432;2022-12-29T06:31:26;-15.80;99.90
11446;DHT22;5779;64.178;15.432;2022-12-29T06:34:13;-15.90;99.90
11446;DHT22;5779;64.178;15.432;2022-12-29T06:37:01;-16.00;99.90
11446;DHT22;5779;64.178;15.432;2022-12-29T06:39:47;-16.20;99.90
11446;DHT22;5779;64.178;15.432;2022-12-29T06:42:36;-16.20;99.90
11446;DHT22;5779;64.178;15.432;2022-12-29T06:45:22;-15.80;99.90
11446;DHT22;5779;64.178;15.432;2022-12-29T06:48:09;-15.50;99.90
11446;DHT22;5779;64.178;15.432;2022-12-29T06:50:57;-15.40;99.90
11446;DHT22;5779;64.178;15.432;2022-12-29T06:53:43;-15.20;99.90
11446;DHT22;5779;64.178;15.432;2022-12-29T06:56:30;-14.80;99.90
11446;DHT22;5779;64.178;15.432;2022-12-29T06:59:18;-14.40;99.90
11446;DHT22;5779;64.178;15.432;2022-12-29T07:02:05;-14.20;99.90
11446;DHT22;5779;64.178;15.432;2022-12-29T07:04:52;-14.00;99.90
11446;DHT22;5779;64.178;15.432;2022-12-29T07:07:40;-14.00;99.90
11446;DHT22;5779;64.178;15.432;2022-12-29T07:10:26;-14.00;99.90
11446;DHT22;5779;64.178;15.432;2022-12-29T07:13:14;-14.10;99.90
11446;DHT22;5779;64.178;15.432;2022-12-29T07:16:05;-14.10;99.90
11446;DHT22;5779;64.178;15.432;2022-12-29T07:18:52;-13.90;99.90
11446;DHT22;5779;64.178;15.432;2022-12-29T07:21:39;-13.60;99.90
11446;DHT22;5779;64.178;15.432;2022-12-29T07:24:26;-13.40;99.90
11446;DHT22;5779;64.178;15.432;2022-12-29T07:27:15;-13.20;99.90
11446;DHT22;5779;64.178;15.432;2022-12-29T07:30:02;-13.20;99.90
11446;DHT22;5779;64.178;15.432;2022-12-29T07:32:50;-13.00;99.90
11446;DHT22;5779;64.178;15.432;2022-12-29T07:35:37;-13.10;99.90
11446;DHT22;5779;64.178;15.432;2022-12-29T07:38:24;-13.10;99.90
11446;DHT22;5779;64.178;15.432;2022-12-29T07:41:11;-12.90;99.90
11446;DHT22;5779;64.178;15.432;2022-12-29T07:43:58;-13.40;99.90
11446;DHT22;5779;64.178;15.432;2022-12-29T07:46:45;-13.70;99.90
11446;DHT22;5779;64.178;15.432;2022-12-29T07:49:34;-14.00;99.90
11446;DHT22;5779;64.178;15.432;2022-12-29T07:52:21;-14.10;99.90
11446;DHT22;5779;64.178;15.432;2022-12-29T07:55:08;-14.10;99.90
11446;DHT22;5779;64.178;15.432;2022-12-29T07:57:56;-14.00;99.90
11446;DHT22;5779;64.178;15.432;2022-12-29T08:00:43;-13.90;99.90
11446;DHT22;5779;64.178;15.432;2022-12-29T08:03:29;-13.90;99.90
11446;DHT22;5779;64.178;15.432;2022-12-29T08:06:17;-13.80;99.90
11446;DHT22;5779;64.178;15.432;2022-12-29T08:09:05;-13.40;99.90
11446;DHT22;5779;64.178;15.432;2022-12-29T08:11:53;-13.10;99.90
11446;DHT22;5779;64.178;15.432;2022-12-29T08:14:40;-12.90;99.90
11446;DHT22;5779;64.178;15.432;2022-12-29T08:17:27;-13.00;99.90
11446;DHT22;5779;64.178;15.432;2022-12-29T08:20:13;-13.10;99.90
11446;DHT22;5779;64.178;15.432;2022-12-29T08:23:02;-13.10;99.90
11446;DHT22;5779;64.178;15.432;2022-12-29T08:25:57;-13.00;99.90
11446;DHT22;5779;64.178;15.432;2022-12-29T08:28:44;-12.80;99.90
11446;DHT22;5779;64.178;15.432;2022-12-29T08:31:32;-12.70;99.90
11446;DHT22;5779;64.178;15.432;2022-12-29T08:34:19;-12.60;99.90
11446;DHT22;5779;64.178;15.432;2022-12-29T08:37:06;-12.30;99.90
11446;DHT22;5779;64.178;15.432;2022-12-29T08:39:54;-12.30;99.90
11446;DHT22;5779;64.178;15.432;2022-12-29T08:42:43;-12.10;99.90
11446;DHT22;5779;64.178;15.432;2022-12-29T08:45:30;-12.00;99.90
11446;DHT22;5779;64.178;15.432;2022-12-29T08:48:17;-12.00;99.90
11446;DHT22;5779;64.178;15.432;2022-12-29T08:51:07;-11.80;99.90
11446;DHT22;5779;64.178;15.432;2022-12-29T08:53:54;-11.80;99.90
11446;DHT22;5779;64.178;15.432;2022-12-29T08:56:42;-11.80;99.90
11446;DHT22;5779;64.178;15.432;2022-12-29T08:59:30;-11.80;99.90
11446;DHT22;5779;64.178;15.432;2022-12-29T09:02:16;-11.60;99.90
11446;DHT22;5779;64.178;15.432;2022-12-29T09:05:04;-11.30;99.90
11446;DHT22;5779;64.178;15.432;2022-12-29T09:07:51;-11.10;99.90
11446;DHT22;5779;64.178;15.432;2022-12-29T09:10:38;-10.90;99.90
11446;DHT22;5779;64.178;15.432;2022-12-29T09:13:26;-10.80;99.90
11446;DHT22;5779;64.178;15.432;2022-12-29T09:16:14;-10.70;99.90
11446;DHT22;5779;64.178;15.432;2022-12-29T09:19:01;-10.70;99.90
11446;DHT22;5779;64.178;15.432;2022-12-29T09:21:48;-10.60;99.90
11446;DHT22;5779;64.178;15.432;2022-12-29T09:24:35;-10.20;99.90
11446;DHT22;5779;64.178;15.432;2022-12-29T09:27:21;-10.00;99.90
11446;DHT22;5779;64.178;15.432;2022-12-29T09:30:14;-9.60;99.90
11446;DHT22;5779;64.178;15.432;2022-12-29T09:33:03;-9.40;99.90
11446;DHT22;5779;64.178;15.432;2022-12-29T09:35:52;-8.90;99.90
11446;DHT22;5779;64.178;15.432;2022-12-29T09:38:39;-8.50;99.90
11446;DHT22;5779;64.178;15.432;2022-12-29T09:41:33;-8.30;99.90
11446;DHT22;5779;64.178;15.432;2022-12-29T09:44:28;-8.20;99.90
11446;DHT22;5779;64.178;15.432;2022-12-29T09:47:20;-8.00;99.90
11446;DHT22;5779;64.178;15.432;2022-12-29T09:50:14;-7.80;99.90
11446;DHT22;5779;64.178;15.432;2022-12-29T09:53:10;-7.60;99.90
11446;DHT22;5779;64.178;15.432;2022-12-29T09:56:01;-7.50;99.90
11446;DHT22;5779;64.178;15.432;2022-12-29T09:58:52;-7.50;99.90
11446;DHT22;5779;64.178;15.432;2022-12-29T10:01:46;-7.40;99.90
11446;DHT22;5779;64.178;15.432;2022-12-29T10:04:43;-7.30;99.90
11446;DHT22;5779;64.178;15.432;2022-12-29T10:07:39;-7.10;99.90
11446;DHT22;5779;64.178;15.432;2022-12-29T10:10:34;-7.00;99.90
11446;DHT22;5779;64.178;15.432;2022-12-29T10:13:31;-6.80;99.90
11446;DHT22;5779;64.178;15.432;2022-12-29T10:16:26;-6.70;99.90
11446;DHT22;5779;64.178;15.432;2022-12-29T10:19:28;-6.70;99.90
11446;DHT22;5779;64.178;15.432;2022-12-29T10:22:28;-6.70;99.90
11446;DHT22;5779;64.178;15.432;2022-12-29T10:25:19;-6.60;99.90
11446;DHT22;5779;64.178;15.432;2022-12-29T10:28:14;-6.60;99.90
11446;DHT22;5779;64.178;15.432;2022-12-29T10:31:06;-6.50;99.90
11446;DHT22;5779;64.178;15.432;2022-12-29T10:33:58;-6.50;99.90
11446;DHT22;5779;64.178;15.432;2022-12-29T10:36:48;-6.50;99.90
11446;DHT22;5779;64.178;15.432;2022-12-29T10:39:43;-6.40;99.90
11446;DHT22;5779;64.178;15.432;2022-12-29T10:42:36;-6.40;99.90
11446;DHT22;5779;64.178;15.432;2022-12-29T10:45:29;-6.30;99.90
11446;DHT22;5779;64.178;15.432;2022-12-29T10:48:20;-6.30;99.90
11446;DHT22;5779;64.178;15.432;2022-12-29T10:51:08;-6.30;99.90
11446;DHT22;5779;64.178;15.432;2022-12-29T10:53:59;-6.20;99.90
11446;DHT22;5779;64.178;15.432;2022-12-29T10:56:51;-6.10;99.90
11446;DHT22;5779;64.178;15.432;2022-12-29T10:59:39;-6.10;99.90
11446;DHT22;5779;64.178;15.432;2022-12-29T11:02:43;-6.00;99.90
11446;DHT22;5779;64.178;15.432;2022-12-29T11:05:34;-5.90;99.90
11446;DHT22;5779;64.178;15.432;2022-12-29T11:08:26;-5.80;99.90
11446;DHT22;5779;64.178;15.432;2022-12-29T11:11:23;-5.80;99.90
11446;DHT22;5779;64.178;15.432;2022-12-29T11:14:16;-5.80;99.90
11446;DHT22;5779;64.178;15.432;2022-12-29T11:17:04;-5.80;99.90
11446;DHT22;5779;64.178;15.432;2022-12-29T11:19:51;-5.80;99.90
11446;DHT22;5779;64.178;15.432;2022-12-29T11:22:44;-5.60;99.90
11446;DHT22;5779;64.178;15.432;2022-12-29T11:25:31;-5.60;99.90
11446;DHT22;5779;64.178;15.432;2022-12-29T11:28:18;-5.60;99.90
11446;DHT22;5779;64.178;15.432;2022-12-29T11:31:08;-5.50;99.90
11446;DHT22;5779;64.178;15.432;2022-12-29T11:33:55;-5.50;99.90
11446;DHT22;5779;64.178;15.432;2022-12-29T11:36:42;-5.60;99.90
11446;DHT22;5779;64.178;15.432;2022-12-29T11:39:36;-5.50;99.90
11446;DHT22;5779;64.178;15.432;2022-12-29T11:42:32;-5.50;99.90
11446;DHT22;5779;64.178;15.432;2022-12-29T11:45:22;-5.40;99.90
11446;DHT22;5779;64.178;15.432;2022-12-29T11:48:16;-5.40;99.90
11446;DHT22;5779;64.178;15.432;2022-12-29T11:51:04;-5.30;99.90
11446;DHT22;5779;64.178;15.432;2022-12-29T11:53:53;-5.20;99.90
11446;DHT22;5779;64.178;15.432;2022-12-29T11:56:43;-5.10;99.90
11446;DHT22;5779;64.178;15.432;2022-12-29T11:59:39;-5.10;99.90
11446;DHT22;5779;64.178;15.432;2022-12-29T12:05:37;-4.90;99.90
11446;DHT22;5779;64.178;15.432;2022-12-29T12:08:33;-4.80;99.90
11446;DHT22;5779;64.178;15.432;2022-12-29T12:11:25;-4.80;99.90
11446;DHT22;5779;64.178;15.432;2022-12-29T12:14:21;-4.70;99.90
11446;DHT22;5779;64.178;15.432;2022-12-29T12:17:13;-4.70;99.90
11446;DHT22;5779;64.178;15.432;2022-12-29T12:20:10;-4.70;99.90
11446;DHT22;5779;64.178;15.432;2022-12-29T12:23:16;-4.60;99.90
11446;DHT22;5779;64.178;15.432;2022-12-29T12:26:12;-4.50;99.90
11446;DHT22;5779;64.178;15.432;2022-12-29T12:29:04;-4.50;99.90
11446;DHT22;5779;64.178;15.432;2022-12-29T12:31:56;-4.40;99.90
11446;DHT22;5779;64.178;15.432;2022-12-29T12:34:45;-4.30;99.90
11446;DHT22;5779;64.178;15.432;2022-12-29T12:37:51;-4.30;99.90
11446;DHT22;5779;64.178;15.432;2022-12-29T12:40:55;-4.20;99.90
11446;DHT22;5779;64.178;15.432;2022-12-29T12:43:49;-4.20;99.90
11446;DHT22;5779;64.178;15.432;2022-12-29T12:47:01;-4.10;99.90
11446;DHT22;5779;64.178;15.432;2022-12-29T12:50:13;-4.00;99.90
11446;DHT22;5779;64.178;15.432;2022-12-29T12:53:14;-3.90;99.90
11446;DHT22;5779;64.178;15.432;2022-12-29T12:59:32;-3.80;99.90
11446;DHT22;5779;64.178;15.432;2022-12-29T13:02:40;-3.70;99.90
11446;DHT22;5779;64.178;15.432;2022-12-29T13:05:51;-3.60;99.90
11446;DHT22;5779;64.178;15.432;2022-12-29T13:08:55;-3.50;99.90
11446;DHT22;5779;64.178;15.432;2022-12-29T13:11:56;-3.40;99.90
11446;DHT22;5779;64.178;15.432;2022-12-29T13:14:56;-3.40;99.90
11446;DHT22;5779;64.178;15.432;2022-12-29T13:17:52;-3.30;99.90
11446;DHT22;5779;64.178;15.432;2022-12-29T13:20:45;-3.10;99.90
11446;DHT22;5779;64.178;15.432;2022-12-29T13:23:38;-3.00;99.90
11446;DHT22;5779;64.178;15.432;2022-12-29T13:26:32;-3.00;99.90
11446;DHT22;5779;64.178;15.432;2022-12-29T13:29:22;-3.00;99.90
11446;DHT22;5779;64.178;15.432;2022-12-29T13:32:21;-2.90;99.90
11446;DHT22;5779;64.178;15.432;2022-12-29T13:35:31;-2.80;99.90
11446;DHT22;5779;64.178;15.432;2022-12-29T13:38:27;-2.70;99.90
11446;DHT22;5779;64.178;15.432;2022-12-29T13:41:29;-2.60;99.90
11446;DHT22;5779;64.178;15.432;2022-12-29T13:44:20;-2.60;99.90
11446;DHT22;5779;64.178;15.432;2022-12-29T13:47:18;-2.50;99.90
11446;DHT22;5779;64.178;15.432;2022-12-29T13:50:13;-2.50;99.90
11446;DHT22;5779;64.178;15.432;2022-12-29T13:53:06;-2.40;99.90
11446;DHT22;5779;64.178;15.432;2022-12-29T13:56:03;-2.30;99.90
11446;DHT22;5779;64.178;15.432;2022-12-29T13:58:56;-2.30;99.90
11446;DHT22;5779;64.178;15.432;2022-12-29T14:01:50;-2.30;99.90
11446;DHT22;5779;64.178;15.432;2022-12-29T14:04:56;-2.30;99.90
11446;DHT22;5779;64.178;15.432;2022-12-29T14:07:44;-2.30;99.90
11446;DHT22;5779;64.178;15.432;2022-12-29T14:10:34;-2.20;99.90
11446;DHT22;5779;64.178;15.432;2022-12-29T14:13:22;-2.20;99.90
11446;DHT22;5779;64.178;15.432;2022-12-29T14:16:21;-2.10;99.90
11446;DHT22;5779;64.178;15.432;2022-12-29T14:19:13;-2.10;99.90
11446;DHT22;5779;64.178;15.432;2022-12-29T14:22:04;-2.10;99.90
11446;DHT22;5779;64.178;15.432;2022-12-29T14:24:52;-2.10;99.90
11446;DHT22;5779;64.178;15.432;2022-12-29T14:27:52;-2.00;99.90
11446;DHT22;5779;64.178;15.432;2022-12-29T14:30:57;-1.90;99.90
11446;DHT22;5779;64.178;15.432;2022-12-29T14:34:22;-1.90;99.90
11446;DHT22;5779;64.178;15.432;2022-12-29T14:37:25;-1.80;99.90
11446;DHT22;5779;64.178;15.432;2022-12-29T14:40:16;-1.80;99.90
11446;DHT22;5779;64.178;15.432;2022-12-29T14:43:12;-1.80;99.90
11446;DHT22;5779;64.178;15.432;2022-12-29T14:46:00;-1.80;99.90
11446;DHT22;5779;64.178;15.432;2022-12-29T14:48:55;-1.80;99.90
11446;DHT22;5779;64.178;15.432;2022-12-29T14:51:42;-1.80;99.90
11446;DHT22;5779;64.178;15.432;2022-12-29T14:54:52;-1.80;99.90
11446;DHT22;5779;64.178;15.432;2022-12-29T14:57:41;-1.80;99.90
11446;DHT22;5779;64.178;15.432;2022-12-29T15:00:31;-1.70;99.90
11446;DHT22;5779;64.178;15.432;2022-12-29T15:03:22;-1.70;99.90
11446;DHT22;5779;64.178;15.432;2022-12-29T15:06:11;-1.70;99.90
11446;DHT22;5779;64.178;15.432;2022-12-29T15:09:06;-1.70;99.90
11446;DHT22;5779;64.178;15.432;2022-12-29T15:12:04;-1.70;99.90
11446;DHT22;5779;64.178;15.432;2022-12-29T15:14:54;-1.70;99.90
11446;DHT22;5779;64.178;15.432;2022-12-29T15:17:42;-1.70;99.90
11446;DHT22;5779;64.178;15.432;2022-12-29T15:20:30;-1.70;99.90
11446;DHT22;5779;64.178;15.432;2022-12-29T15:23:18;-1.60;99.90
11446;DHT22;5779;64.178;15.432;2022-12-29T15:26:06;-1.60;99.90
11446;DHT22;5779;64.178;15.432;2022-12-29T15:28:55;-1.60;99.90
11446;DHT22;5779;64.178;15.432;2022-12-29T15:31:47;-1.50;99.90
11446;DHT22;5779;64.178;15.432;2022-12-29T15:34:34;-1.50;99.90
11446;DHT22;5779;64.178;15.432;2022-12-29T15:37:23;-1.50;99.90
11446;DHT22;5779;64.178;15.432;2022-12-29T15:40:22;-1.40;99.90
11446;DHT22;5779;64.178;15.432;2022-12-29T15:43:30;-1.50;99.90
11446;DHT22;5779;64.178;15.432;2022-12-29T15:46:21;-1.50;99.90
11446;DHT22;5779;64.178;15.432;2022-12-29T15:49:08;-1.50;99.90
11446;DHT22;5779;64.178;15.432;2022-12-29T15:51:55;-1.40;99.90
11446;DHT22;5779;64.178;15.432;2022-12-29T15:54:43;-1.40;99.90
11446;DHT22;5779;64.178;15.432;2022-12-29T15:57:37;-1.40;99.90
11446;DHT22;5779;64.178;15.432;2022-12-29T16:00:26;-1.40;99.90
11446;DHT22;5779;64.178;15.432;2022-12-29T16:03:17;-1.40;99.90
11446;DHT22;5779;64.178;15.432;2022-12-29T16:06:09;-1.30;99.90
11446;DHT22;5779;64.178;15.432;2022-12-29T16:08:58;-1.30;99.90
11446;DHT22;5779;64.178;15.432;2022-12-29T16:11:47;-1.30;99.90
11446;DHT22;5779;64.178;15.432;2022-12-29T16:14:41;-1.30;99.90
11446;DHT22;5779;64.178;15.432;2022-12-29T16:17:31;-1.20;99.90
11446;DHT22;5779;64.178;15.432;2022-12-29T16:20:22;-1.20;99.90
11446;DHT22;5779;64.178;15.432;2022-12-29T16:23:18;-1.20;99.90
11446;DHT22;5779;64.178;15.432;2022-12-29T16:26:15;-1.20;99.90
11446;DHT22;5779;64.178;15.432;2022-12-29T16:29:06;-1.20;99.90
11446;DHT22;5779;64.178;15.432;2022-12-29T16:31:55;-1.20;99.90
11446;DHT22;5779;64.178;15.432;2022-12-29T16:34:47;-1.20;99.90
11446;DHT22;5779;64.178;15.432;2022-12-29T16:37:36;-1.10;99.90
11446;DHT22;5779;64.178;15.432;2022-12-29T16:40:28;-1.10;99.90
11446;DHT22;5779;64.178;15.432;2022-12-29T16:43:21;-1.10;99.90
11446;DHT22;5779;64.178;15.432;2022-12-29T16:46:28;-1.10;99.90
11446;DHT22;5779;64.178;15.432;2022-12-29T16:49:17;-1.10;99.90
11446;DHT22;5779;64.178;15.432;2022-12-29T16:52:12;-1.00;99.90
11446;DHT22;5779;64.178;15.432;2022-12-29T16:55:02;-1.00;99.90
11446;DHT22;5779;64.178;15.432;2022-12-29T16:57:52;-1.00;99.90
11446;DHT22;5779;64.178;15.432;2022-12-29T17:00:41;-1.00;99.90
11446;DHT22;5779;64.178;15.432;2022-12-29T17:03:33;-1.00;99.90
11446;DHT22;5779;64.178;15.432;2022-12-29T17:06:22;-0.90;99.90
11446;DHT22;5779;64.178;15.432;2022-12-29T17:09:21;-0.90;99.90
11446;DHT22;5779;64.178;15.432;2022-12-29T17:12:15;-0.90;99.90
11446;DHT22;5779;64.178;15.432;2022-12-29T17:15:05;-0.90;99.90
11446;DHT22;5779;64.178;15.432;2022-12-29T17:17:56;-0.80;99.90
11446;DHT22;5779;64.178;15.432;2022-12-29T17:20:43;-0.80;99.90
11446;DHT22;5779;64.178;15.432;2022-12-29T17:23:30;-0.80;99.90
11446;DHT22;5779;64.178;15.432;2022-12-29T17:26:18;-0.80;99.90
11446;DHT22;5779;64.178;15.432;2022-12-29T17:29:06;-0.80;99.90
11446;DHT22;5779;64.178;15.432;2022-12-29T17:31:53;-0.70;99.90
11446;DHT22;5779;64.178;15.432;2022-12-29T17:34:40;-0.70;99.90
11446;DHT22;5779;64.178;15.432;2022-12-29T17:37:35;-0.70;99.90
11446;DHT22;5779;64.178;15.432;2022-12-29T17:40:25;-0.60;99.90
11446;DHT22;5779;64.178;15.432;2022-12-29T17:43:13;-0.60;99.90
11446;DHT22;5779;64.178;15.432;2022-12-29T17:46:05;-0.60;99.90
11446;DHT22;5779;64.178;15.432;2022-12-29T17:48:53;-0.60;99.90
11446;DHT22;5779;64.178;15.432;2022-12-29T17:51:41;-0.60;99.90
11446;DHT22;5779;64.178;15.432;2022-12-29T17:54:28;-0.60;99.90
11446;DHT22;5779;64.178;15.432;2022-12-29T17:57:18;-0.60;99.90
11446;DHT22;5779;64.178;15.432;2022-12-29T18:00:07;-0.60;99.90
11446;DHT22;5779;64.178;15.432;2022-12-29T18:02:58;-0.50;99.90